Terminal Aerodrome Forecast
Issued by NWS

Home | Current Version | Previous Version | Text Only | Print | Product List | Glossary On
Versions: 1 2 3 4 5 6 7 8 9 10 11 12 13 14
683
FTUS43 KJKL 241724 AAA
TAFSME
TAF AMD
KSME 241724Z 2417/2518 23012G19KT P6SM BKN050
     FM242300 19008KT P6SM BKN070
     FM251500 18010G21KT P6SM BKN070=

USA.gov is the U.S. government's official web portal to all federal, state and local government web resources and services.